sensor_id;sensor_type;location;lat;lon;timestamp;P1;durP1;ratioP1;P2;durP2;ratioP2
67227;SDS011;54139;42.616;23.748;2023-06-19T00:01:31;12.77;;;11.68;;
67227;SDS011;54139;42.616;23.748;2023-06-19T00:03:56;13.73;;;12.48;;
67227;SDS011;54139;42.616;23.748;2023-06-19T00:06:22;13.75;;;11.85;;
67227;SDS011;54139;42.616;23.748;2023-06-19T00:08:47;13.27;;;11.98;;
67227;SDS011;54139;42.616;23.748;2023-06-19T00:11:13;14.02;;;12.55;;
67227;SDS011;54139;42.616;23.748;2023-06-19T00:13:38;16.63;;;13.48;;
67227;SDS011;54139;42.616;23.748;2023-06-19T00:16:04;17.38;;;14.07;;
67227;SDS011;54139;42.616;23.748;2023-06-19T00:18:30;15.85;;;13.48;;
67227;SDS011;54139;42.616;23.748;2023-06-19T00:20:55;17.85;;;15.55;;
67227;SDS011;54139;42.616;23.748;2023-06-19T00:23:22;15.35;;;14.15;;
67227;SDS011;54139;42.616;23.748;2023-06-19T00:25:48;16.45;;;15.00;;
67227;SDS011;54139;42.616;23.748;2023-06-19T00:28:13;15.82;;;14.25;;
67227;SDS011;54139;42.616;23.748;2023-06-19T00:30:40;16.70;;;15.30;;
67227;SDS011;54139;42.616;23.748;2023-06-19T00:33:06;18.52;;;16.67;;
67227;SDS011;54139;42.616;23.748;2023-06-19T00:35:32;18.00;;;15.70;;
67227;SDS011;54139;42.616;23.748;2023-06-19T00:37:58;19.33;;;17.38;;
67227;SDS011;54139;42.616;23.748;2023-06-19T00:40:32;20.83;;;18.98;;
67227;SDS011;54139;42.616;23.748;2023-06-19T00:42:59;19.92;;;17.95;;
67227;SDS011;54139;42.616;23.748;2023-06-19T00:45:25;19.45;;;17.63;;
67227;SDS011;54139;42.616;23.748;2023-06-19T00:47:54;21.30;;;15.85;;
67227;SDS011;54139;42.616;23.748;2023-06-19T00:50:21;18.30;;;16.45;;
67227;SDS011;54139;42.616;23.748;2023-06-19T00:52:47;19.15;;;16.23;;
67227;SDS011;54139;42.616;23.748;2023-06-19T00:55:12;18.73;;;16.85;;
67227;SDS011;54139;42.616;23.748;2023-06-19T00:57:38;17.73;;;16.13;;
67227;SDS011;54139;42.616;23.748;2023-06-19T01:00:05;16.92;;;15.15;;
67227;SDS011;54139;42.616;23.748;2023-06-19T01:02:32;16.63;;;14.95;;
67227;SDS011;54139;42.616;23.748;2023-06-19T01:05:00;17.03;;;14.90;;
67227;SDS011;54139;42.616;23.748;2023-06-19T01:10:12;16.70;;;15.02;;
67227;SDS011;54139;42.616;23.748;2023-06-19T01:12:42;19.45;;;15.23;;
67227;SDS011;54139;42.616;23.748;2023-06-19T01:15:36;22.40;;;16.73;;
67227;SDS011;54139;42.616;23.748;2023-06-19T01:18:02;17.77;;;16.02;;
67227;SDS011;54139;42.616;23.748;2023-06-19T01:20:28;18.08;;;15.20;;
67227;SDS011;54139;42.616;23.748;2023-06-19T01:22:53;16.70;;;14.52;;
67227;SDS011;54139;42.616;23.748;2023-06-19T01:25:22;15.65;;;14.15;;
67227;SDS011;54139;42.616;23.748;2023-06-19T01:27:50;32.90;;;16.02;;
67227;SDS011;54139;42.616;23.748;2023-06-19T01:30:16;15.25;;;13.85;;
67227;SDS011;54139;42.616;23.748;2023-06-19T01:35:19;15.98;;;13.90;;
67227;SDS011;54139;42.616;23.748;2023-06-19T01:37:46;16.13;;;14.57;;
67227;SDS011;54139;42.616;23.748;2023-06-19T01:40:13;15.32;;;13.82;;
67227;SDS011;54139;42.616;23.748;2023-06-19T01:42:39;16.58;;;14.07;;
67227;SDS011;54139;42.616;23.748;2023-06-19T01:45:05;23.48;;;15.27;;
67227;SDS011;54139;42.616;23.748;2023-06-19T01:47:31;15.82;;;14.32;;
67227;SDS011;54139;42.616;23.748;2023-06-19T01:49:57;15.38;;;13.95;;
67227;SDS011;54139;42.616;23.748;2023-06-19T01:52:23;17.85;;;14.55;;
67227;SDS011;54139;42.616;23.748;2023-06-19T01:54:49;15.95;;;14.40;;
67227;SDS011;54139;42.616;23.748;2023-06-19T01:57:15;19.67;;;14.90;;
67227;SDS011;54139;42.616;23.748;2023-06-19T01:59:40;15.75;;;14.30;;
67227;SDS011;54139;42.616;23.748;2023-06-19T02:02:06;17.13;;;15.63;;
67227;SDS011;54139;42.616;23.748;2023-06-19T02:04:32;16.45;;;14.75;;
67227;SDS011;54139;42.616;23.748;2023-06-19T02:06:57;14.13;;;13.00;;
67227;SDS011;54139;42.616;23.748;2023-06-19T02:09:23;14.30;;;12.63;;
67227;SDS011;54139;42.616;23.748;2023-06-19T02:11:48;14.70;;;13.20;;
67227;SDS011;54139;42.616;23.748;2023-06-19T02:14:14;14.00;;;12.68;;
67227;SDS011;54139;42.616;23.748;2023-06-19T02:16:39;13.52;;;12.18;;
67227;SDS011;54139;42.616;23.748;2023-06-19T02:19:08;15.02;;;12.57;;
67227;SDS011;54139;42.616;23.748;2023-06-19T02:21:36;14.43;;;11.88;;
67227;SDS011;54139;42.616;23.748;2023-06-19T02:24:02;16.60;;;12.70;;
67227;SDS011;54139;42.616;23.748;2023-06-19T02:26:28;13.10;;;11.52;;
67227;SDS011;54139;42.616;23.748;2023-06-19T02:28:54;13.60;;;12.20;;
67227;SDS011;54139;42.616;23.748;2023-06-19T02:31:21;27.55;;;13.50;;
67227;SDS011;54139;42.616;23.748;2023-06-19T02:33:47;14.18;;;12.77;;
67227;SDS011;54139;42.616;23.748;2023-06-19T02:36:13;16.30;;;12.30;;
67227;SDS011;54139;42.616;23.748;2023-06-19T02:38:38;16.02;;;11.90;;
67227;SDS011;54139;42.616;23.748;2023-06-19T02:41:04;12.90;;;11.80;;
67227;SDS011;54139;42.616;23.748;2023-06-19T02:43:29;14.65;;;13.30;;
67227;SDS011;54139;42.616;23.748;2023-06-19T02:45:55;15.73;;;12.50;;
67227;SDS011;54139;42.616;23.748;2023-06-19T02:48:20;16.95;;;12.52;;
67227;SDS011;54139;42.616;23.748;2023-06-19T02:50:48;13.05;;;11.85;;
67227;SDS011;54139;42.616;23.748;2023-06-19T02:53:13;12.32;;;11.13;;
67227;SDS011;54139;42.616;23.748;2023-06-19T02:55:39;12.13;;;11.02;;
67227;SDS011;54139;42.616;23.748;2023-06-19T02:58:05;12.68;;;11.60;;
67227;SDS011;54139;42.616;23.748;2023-06-19T03:00:30;19.15;;;12.07;;
67227;SDS011;54139;42.616;23.748;2023-06-19T03:02:56;40.42;;;30.42;;
67227;SDS011;54139;42.616;23.748;2023-06-19T03:05:22;38.25;;;26.55;;
67227;SDS011;54139;42.616;23.748;2023-06-19T03:07:47;32.40;;;23.73;;
67227;SDS011;54139;42.616;23.748;2023-06-19T03:10:12;18.50;;;16.60;;
67227;SDS011;54139;42.616;23.748;2023-06-19T03:12:38;17.20;;;15.55;;
67227;SDS011;54139;42.616;23.748;2023-06-19T03:15:04;14.90;;;12.63;;
67227;SDS011;54139;42.616;23.748;2023-06-19T03:17:29;10.70;;;9.85;;
67227;SDS011;54139;42.616;23.748;2023-06-19T03:19:55;12.85;;;11.60;;
67227;SDS011;54139;42.616;23.748;2023-06-19T03:22:21;10.57;;;9.50;;
67227;SDS011;54139;42.616;23.748;2023-06-19T03:24:46;11.05;;;10.15;;
67227;SDS011;54139;42.616;23.748;2023-06-19T03:27:12;10.20;;;8.73;;
67227;SDS011;54139;42.616;23.748;2023-06-19T03:29:37;9.98;;;8.63;;
67227;SDS011;54139;42.616;23.748;2023-06-19T03:32:03;6.72;;;6.13;;
67227;SDS011;54139;42.616;23.748;2023-06-19T03:34:29;7.30;;;5.75;;
67227;SDS011;54139;42.616;23.748;2023-06-19T03:36:54;8.27;;;4.95;;
67227;SDS011;54139;42.616;23.748;2023-06-19T03:39:19;7.63;;;5.22;;
67227;SDS011;54139;42.616;23.748;2023-06-19T03:41:45;8.48;;;5.13;;
67227;SDS011;54139;42.616;23.748;2023-06-19T03:44:10;5.30;;;4.82;;
67227;SDS011;54139;42.616;23.748;2023-06-19T03:46:36;13.38;;;11.43;;
67227;SDS011;54139;42.616;23.748;2023-06-19T03:49:01;10.85;;;9.82;;
67227;SDS011;54139;42.616;23.748;2023-06-19T03:51:29;7.47;;;6.90;;
67227;SDS011;54139;42.616;23.748;2023-06-19T03:53:55;9.50;;;6.22;;
67227;SDS011;54139;42.616;23.748;2023-06-19T03:56:20;8.63;;;5.45;;
67227;SDS011;54139;42.616;23.748;2023-06-19T03:58:45;7.53;;;4.97;;
67227;SDS011;54139;42.616;23.748;2023-06-19T04:01:11;6.97;;;5.22;;
67227;SDS011;54139;42.616;23.748;2023-06-19T04:03:37;6.78;;;5.28;;
67227;SDS011;54139;42.616;23.748;2023-06-19T04:06:02;6.30;;;4.97;;
67227;SDS011;54139;42.616;23.748;2023-06-19T04:08:28;8.30;;;4.60;;
67227;SDS011;54139;42.616;23.748;2023-06-19T04:10:53;5.97;;;4.65;;
67227;SDS011;54139;42.616;23.748;2023-06-19T04:13:19;9.32;;;4.25;;
67227;SDS011;54139;42.616;23.748;2023-06-19T04:15:44;6.38;;;3.83;;
67227;SDS011;54139;42.616;23.748;2023-06-19T04:18:10;4.90;;;4.43;;
67227;SDS011;54139;42.616;23.748;2023-06-19T04:20:36;6.53;;;4.05;;
67227;SDS011;54139;42.616;23.748;2023-06-19T04:23:01;8.50;;;5.00;;
67227;SDS011;54139;42.616;23.748;2023-06-19T04:25:26;8.23;;;5.57;;
67227;SDS011;54139;42.616;23.748;2023-06-19T04:27:52;10.30;;;6.22;;
67227;SDS011;54139;42.616;23.748;2023-06-19T04:30:17;6.53;;;4.90;;
67227;SDS011;54139;42.616;23.748;2023-06-19T04:32:46;6.68;;;4.85;;
67227;SDS011;54139;42.616;23.748;2023-06-19T04:35:11;5.50;;;4.97;;
67227;SDS011;54139;42.616;23.748;2023-06-19T04:37:37;5.28;;;4.85;;
67227;SDS011;54139;42.616;23.748;2023-06-19T04:40:02;4.82;;;4.20;;
67227;SDS011;54139;42.616;23.748;2023-06-19T04:42:32;5.10;;;4.70;;
67227;SDS011;54139;42.616;23.748;2023-06-19T04:44:58;6.85;;;5.50;;
67227;SDS011;54139;42.616;23.748;2023-06-19T04:47:24;5.47;;;4.50;;
67227;SDS011;54139;42.616;23.748;2023-06-19T04:49:50;10.82;;;4.80;;
67227;SDS011;54139;42.616;23.748;2023-06-19T04:52:15;8.60;;;5.45;;
67227;SDS011;54139;42.616;23.748;2023-06-19T04:54:41;5.38;;;4.88;;
67227;SDS011;54139;42.616;23.748;2023-06-19T04:57:06;5.60;;;5.10;;
67227;SDS011;54139;42.616;23.748;2023-06-19T04:59:32;6.07;;;4.78;;
67227;SDS011;54139;42.616;23.748;2023-06-19T05:01:58;5.60;;;4.88;;
67227;SDS011;54139;42.616;23.748;2023-06-19T05:04:24;5.30;;;4.65;;
67227;SDS011;54139;42.616;23.748;2023-06-19T05:06:49;4.78;;;4.38;;
67227;SDS011;54139;42.616;23.748;2023-06-19T05:09:15;6.72;;;5.10;;
67227;SDS011;54139;42.616;23.748;2023-06-19T05:11:41;6.90;;;4.97;;
67227;SDS011;54139;42.616;23.748;2023-06-19T05:14:07;5.63;;;4.55;;
67227;SDS011;54139;42.616;23.748;2023-06-19T05:16:35;5.25;;;4.75;;
67227;SDS011;54139;42.616;23.748;2023-06-19T05:19:00;5.75;;;5.07;;
67227;SDS011;54139;42.616;23.748;2023-06-19T05:21:26;5.20;;;4.80;;
67227;SDS011;54139;42.616;23.748;2023-06-19T05:23:52;9.25;;;4.95;;
67227;SDS011;54139;42.616;23.748;2023-06-19T05:26:18;8.27;;;4.50;;
67227;SDS011;54139;42.616;23.748;2023-06-19T05:28:43;6.07;;;5.30;;
67227;SDS011;54139;42.616;23.748;2023-06-19T05:31:09;6.00;;;4.90;;
67227;SDS011;54139;42.616;23.748;2023-06-19T05:33:34;5.68;;;4.63;;
67227;SDS011;54139;42.616;23.748;2023-06-19T05:36:00;4.97;;;4.63;;
67227;SDS011;54139;42.616;23.748;2023-06-19T05:38:26;4.43;;;4.13;;
67227;SDS011;54139;42.616;23.748;2023-06-19T05:40:53;4.97;;;4.53;;
67227;SDS011;54139;42.616;23.748;2023-06-19T05:43:19;6.85;;;4.30;;
67227;SDS011;54139;42.616;23.748;2023-06-19T05:45:44;5.37;;;3.50;;
67227;SDS011;54139;42.616;23.748;2023-06-19T05:48:09;6.32;;;4.18;;
67227;SDS011;54139;42.616;23.748;2023-06-19T05:50:35;4.57;;;4.20;;
67227;SDS011;54139;42.616;23.748;2023-06-19T05:53:00;5.17;;;4.20;;
67227;SDS011;54139;42.616;23.748;2023-06-19T05:55:26;6.97;;;4.10;;
67227;SDS011;54139;42.616;23.748;2023-06-19T05:57:52;4.60;;;4.18;;
67227;SDS011;54139;42.616;23.748;2023-06-19T06:00:18;4.63;;;4.25;;
67227;SDS011;54139;42.616;23.748;2023-06-19T06:02:44;4.00;;;3.80;;
67227;SDS011;54139;42.616;23.748;2023-06-19T06:05:09;4.00;;;3.70;;
67227;SDS011;54139;42.616;23.748;2023-06-19T06:07:35;6.13;;;3.83;;
67227;SDS011;54139;42.616;23.748;2023-06-19T06:10:01;6.10;;;4.30;;
67227;SDS011;54139;42.616;23.748;2023-06-19T06:12:26;4.20;;;3.80;;
67227;SDS011;54139;42.616;23.748;2023-06-19T06:14:52;4.70;;;3.40;;
67227;SDS011;54139;42.616;23.748;2023-06-19T06:17:17;4.50;;;3.97;;
67227;SDS011;54139;42.616;23.748;2023-06-19T06:19:42;9.30;;;4.25;;
67227;SDS011;54139;42.616;23.748;2023-06-19T06:22:08;4.25;;;3.90;;
67227;SDS011;54139;42.616;23.748;2023-06-19T06:24:33;4.93;;;4.40;;
67227;SDS011;54139;42.616;23.748;2023-06-19T06:26:59;4.75;;;4.45;;
67227;SDS011;54139;42.616;23.748;2023-06-19T06:29:24;7.63;;;5.47;;
67227;SDS011;54139;42.616;23.748;2023-06-19T06:31:50;6.88;;;4.45;;
67227;SDS011;54139;42.616;23.748;2023-06-19T06:34:18;4.50;;;4.13;;
67227;SDS011;54139;42.616;23.748;2023-06-19T06:36:44;4.77;;;4.00;;
67227;SDS011;54139;42.616;23.748;2023-06-19T06:39:10;5.68;;;3.95;;
67227;SDS011;54139;42.616;23.748;2023-06-19T06:41:36;6.38;;;3.95;;
67227;SDS011;54139;42.616;23.748;2023-06-19T06:44:01;4.72;;;4.13;;
67227;SDS011;54139;42.616;23.748;2023-06-19T06:46:27;4.13;;;3.72;;
67227;SDS011;54139;42.616;23.748;2023-06-19T06:48:52;4.60;;;4.30;;
67227;SDS011;54139;42.616;23.748;2023-06-19T06:51:18;4.30;;;3.90;;
67227;SDS011;54139;42.616;23.748;2023-06-19T06:53:43;4.70;;;4.40;;
67227;SDS011;54139;42.616;23.748;2023-06-19T06:56:09;10.18;;;4.30;;
67227;SDS011;54139;42.616;23.748;2023-06-19T06:58:35;4.90;;;4.45;;
67227;SDS011;54139;42.616;23.748;2023-06-19T07:01:01;4.10;;;3.75;;
67227;SDS011;54139;42.616;23.748;2023-06-19T07:03:27;8.48;;;4.45;;
67227;SDS011;54139;42.616;23.748;2023-06-19T07:05:55;4.43;;;4.13;;
67227;SDS011;54139;42.616;23.748;2023-06-19T07:08:20;4.43;;;4.10;;
67227;SDS011;54139;42.616;23.748;2023-06-19T07:10:46;5.70;;;4.55;;
67227;SDS011;54139;42.616;23.748;2023-06-19T07:13:11;6.22;;;4.57;;
67227;SDS011;54139;42.616;23.748;2023-06-19T07:15:36;4.65;;;4.22;;
67227;SDS011;54139;42.616;23.748;2023-06-19T07:18:02;5.30;;;4.22;;
67227;SDS011;54139;42.616;23.748;2023-06-19T07:20:27;4.88;;;4.50;;
67227;SDS011;54139;42.616;23.748;2023-06-19T07:22:53;8.77;;;4.78;;
67227;SDS011;54139;42.616;23.748;2023-06-19T07:25:18;11.63;;;4.50;;
67227;SDS011;54139;42.616;23.748;2023-06-19T07:27:44;5.70;;;5.03;;
67227;SDS011;54139;42.616;23.748;2023-06-19T07:30:09;4.95;;;4.55;;
67227;SDS011;54139;42.616;23.748;2023-06-19T07:32:36;7.13;;;3.72;;
67227;SDS011;54139;42.616;23.748;2023-06-19T07:35:02;4.60;;;4.18;;
67227;SDS011;54139;42.616;23.748;2023-06-19T07:37:27;3.78;;;3.42;;
67227;SDS011;54139;42.616;23.748;2023-06-19T07:39:53;4.78;;;4.28;;
67227;SDS011;54139;42.616;23.748;2023-06-19T07:42:18;4.78;;;4.25;;
67227;SDS011;54139;42.616;23.748;2023-06-19T07:44:44;6.72;;;3.80;;
67227;SDS011;54139;42.616;23.748;2023-06-19T07:47:10;4.53;;;4.07;;
67227;SDS011;54139;42.616;23.748;2023-06-19T07:49:35;4.07;;;3.78;;
67227;SDS011;54139;42.616;23.748;2023-06-19T07:52:01;4.35;;;3.95;;
67227;SDS011;54139;42.616;23.748;2023-06-19T07:54:28;5.68;;;4.05;;
67227;SDS011;54139;42.616;23.748;2023-06-19T07:56:53;3.83;;;3.58;;
67227;SDS011;54139;42.616;23.748;2023-06-19T07:59:19;4.65;;;4.25;;
67227;SDS011;54139;42.616;23.748;2023-06-19T08:01:44;3.97;;;3.50;;
67227;SDS011;54139;42.616;23.748;2023-06-19T08:04:10;3.72;;;3.40;;
67227;SDS011;54139;42.616;23.748;2023-06-19T08:06:35;3.60;;;3.38;;
67227;SDS011;54139;42.616;23.748;2023-06-19T08:09:01;7.18;;;3.72;;
67227;SDS011;54139;42.616;23.748;2023-06-19T08:11:27;6.97;;;5.05;;
67227;SDS011;54139;42.616;23.748;2023-06-19T08:13:53;6.65;;;4.60;;
67227;SDS011;54139;42.616;23.748;2023-06-19T08:16:18;4.47;;;3.70;;
67227;SDS011;54139;42.616;23.748;2023-06-19T08:18:44;4.00;;;3.63;;
67227;SDS011;54139;42.616;23.748;2023-06-19T08:21:10;3.83;;;3.40;;
67227;SDS011;54139;42.616;23.748;2023-06-19T08:23:36;4.38;;;3.50;;
67227;SDS011;54139;42.616;23.748;2023-06-19T08:26:04;3.88;;;3.58;;
67227;SDS011;54139;42.616;23.748;2023-06-19T08:28:33;7.63;;;3.90;;
67227;SDS011;54139;42.616;23.748;2023-06-19T08:30:58;6.25;;;3.67;;
67227;SDS011;54139;42.616;23.748;2023-06-19T08:33:24;4.70;;;3.78;;
67227;SDS011;54139;42.616;23.748;2023-06-19T08:35:49;3.90;;;3.60;;
67227;SDS011;54139;42.616;23.748;2023-06-19T08:38:15;3.67;;;3.38;;
67227;SDS011;54139;42.616;23.748;2023-06-19T08:40:41;6.32;;;3.63;;
67227;SDS011;54139;42.616;23.748;2023-06-19T08:43:08;7.97;;;3.67;;
67227;SDS011;54139;42.616;23.748;2023-06-19T08:45:33;7.63;;;3.65;;
67227;SDS011;54139;42.616;23.748;2023-06-19T08:47:59;5.43;;;3.60;;
67227;SDS011;54139;42.616;23.748;2023-06-19T08:50:25;5.30;;;3.50;;
67227;SDS011;54139;42.616;23.748;2023-06-19T08:52:51;4.75;;;4.10;;
67227;SDS011;54139;42.616;23.748;2023-06-19T08:55:16;4.60;;;4.00;;
67227;SDS011;54139;42.616;23.748;2023-06-19T08:57:42;3.45;;;3.25;;
67227;SDS011;54139;42.616;23.748;2023-06-19T09:00:08;4.28;;;3.50;;
67227;SDS011;54139;42.616;23.748;2023-06-19T09:02:36;3.95;;;3.35;;
67227;SDS011;54139;42.616;23.748;2023-06-19T09:05:12;5.80;;;3.50;;
67227;SDS011;54139;42.616;23.748;2023-06-19T09:07:54;6.20;;;4.35;;
67227;SDS011;54139;42.616;23.748;2023-06-19T09:10:21;4.00;;;3.70;;
67227;SDS011;54139;42.616;23.748;2023-06-19T09:13:01;3.90;;;3.60;;
67227;SDS011;54139;42.616;23.748;2023-06-19T09:15:32;4.13;;;3.78;;
67227;SDS011;54139;42.616;23.748;2023-06-19T09:18:01;4.07;;;3.78;;
67227;SDS011;54139;42.616;23.748;2023-06-19T09:20:33;3.88;;;3.63;;
67227;SDS011;54139;42.616;23.748;2023-06-19T09:23:05;4.10;;;3.70;;
67227;SDS011;54139;42.616;23.748;2023-06-19T09:25:30;4.22;;;3.85;;
67227;SDS011;54139;42.616;23.748;2023-06-19T09:27:56;5.65;;;4.05;;
67227;SDS011;54139;42.616;23.748;2023-06-19T09:30:22;4.60;;;4.15;;
67227;SDS011;54139;42.616;23.748;2023-06-19T09:32:48;4.00;;;3.70;;
67227;SDS011;54139;42.616;23.748;2023-06-19T09:35:14;4.57;;;3.83;;
67227;SDS011;54139;42.616;23.748;2023-06-19T09:37:40;4.88;;;3.55;;
67227;SDS011;54139;42.616;23.748;2023-06-19T09:40:05;4.68;;;3.90;;
67227;SDS011;54139;42.616;23.748;2023-06-19T09:42:40;5.35;;;3.72;;
67227;SDS011;54139;42.616;23.748;2023-06-19T09:45:11;6.60;;;3.60;;
67227;SDS011;54139;42.616;23.748;2023-06-19T09:47:46;4.40;;;4.00;;
67227;SDS011;54139;42.616;23.748;2023-06-19T09:50:13;4.32;;;3.50;;
67227;SDS011;54139;42.616;23.748;2023-06-19T09:52:43;4.10;;;3.80;;
67227;SDS011;54139;42.616;23.748;2023-06-19T09:55:10;4.30;;;3.80;;
67227;SDS011;54139;42.616;23.748;2023-06-19T09:57:38;4.28;;;3.35;;
67227;SDS011;54139;42.616;23.748;2023-06-19T10:00:08;4.45;;;4.05;;
67227;SDS011;54139;42.616;23.748;2023-06-19T10:02:37;7.05;;;4.00;;
67227;SDS011;54139;42.616;23.748;2023-06-19T10:05:03;7.05;;;3.90;;
67227;SDS011;54139;42.616;23.748;2023-06-19T10:07:33;3.72;;;3.42;;
67227;SDS011;54139;42.616;23.748;2023-06-19T10:17:35;3.83;;;3.55;;
67227;SDS011;54139;42.616;23.748;2023-06-19T10:20:01;8.27;;;3.65;;
67227;SDS011;54139;42.616;23.748;2023-06-19T10:22:31;3.08;;;2.85;;
67227;SDS011;54139;42.616;23.748;2023-06-19T10:24:56;4.22;;;3.17;;
67227;SDS011;54139;42.616;23.748;2023-06-19T10:27:23;3.42;;;3.13;;
67227;SDS011;54139;42.616;23.748;2023-06-19T10:29:53;4.40;;;2.88;;
67227;SDS011;54139;42.616;23.748;2023-06-19T10:32:19;3.30;;;3.10;;
67227;SDS011;54139;42.616;23.748;2023-06-19T10:34:45;3.53;;;3.20;;
67227;SDS011;54139;42.616;23.748;2023-06-19T10:37:17;3.70;;;3.40;;
67227;SDS011;54139;42.616;23.748;2023-06-19T10:39:43;3.72;;;2.92;;
67227;SDS011;54139;42.616;23.748;2023-06-19T10:42:09;5.85;;;3.30;;
67227;SDS011;54139;42.616;23.748;2023-06-19T10:44:35;2.90;;;2.70;;
67227;SDS011;54139;42.616;23.748;2023-06-19T10:47:02;3.83;;;3.47;;
67227;SDS011;54139;42.616;23.748;2023-06-19T10:49:28;4.32;;;3.20;;
67227;SDS011;54139;42.616;23.748;2023-06-19T10:51:53;6.82;;;3.40;;
67227;SDS011;54139;42.616;23.748;2023-06-19T10:54:24;3.30;;;3.10;;
67227;SDS011;54139;42.616;23.748;2023-06-19T10:56:50;2.70;;;2.50;;
67227;SDS011;54139;42.616;23.748;2023-06-19T10:59:16;3.47;;;3.10;;
67227;SDS011;54139;42.616;23.748;2023-06-19T11:01:42;3.35;;;2.90;;
67227;SDS011;54139;42.616;23.748;2023-06-19T11:04:11;5.13;;;3.22;;
67227;SDS011;54139;42.616;23.748;2023-06-19T11:06:39;3.53;;;3.22;;
67227;SDS011;54139;42.616;23.748;2023-06-19T11:09:06;3.35;;;3.15;;
67227;SDS011;54139;42.616;23.748;2023-06-19T11:14:09;3.38;;;3.00;;
67227;SDS011;54139;42.616;23.748;2023-06-19T11:16:35;3.33;;;2.95;;
67227;SDS011;54139;42.616;23.748;2023-06-19T11:19:02;3.27;;;2.97;;
67227;SDS011;54139;42.616;23.748;2023-06-19T11:21:32;3.45;;;3.25;;
67227;SDS011;54139;42.616;23.748;2023-06-19T11:24:03;3.15;;;2.95;;
67227;SDS011;54139;42.616;23.748;2023-06-19T11:26:33;3.55;;;3.25;;
67227;SDS011;54139;42.616;23.748;2023-06-19T11:29:00;3.55;;;3.13;;
67227;SDS011;54139;42.616;23.748;2023-06-19T11:31:26;3.58;;;3.28;;
67227;SDS011;54139;42.616;23.748;2023-06-19T11:33:56;5.53;;;3.65;;
67227;SDS011;54139;42.616;23.748;2023-06-19T11:36:23;3.85;;;3.55;;
67227;SDS011;54139;42.616;23.748;2023-06-19T11:38:49;3.58;;;3.20;;
67227;SDS011;54139;42.616;23.748;2023-06-19T11:41:24;3.72;;;3.50;;
67227;SDS011;54139;42.616;23.748;2023-06-19T11:43:57;3.60;;;3.30;;
67227;SDS011;54139;42.616;23.748;2023-06-19T11:46:27;3.70;;;3.50;;
67227;SDS011;54139;42.616;23.748;2023-06-19T11:48:53;8.38;;;2.97;;
67227;SDS011;54139;42.616;23.748;2023-06-19T11:51:19;4.00;;;3.70;;
67227;SDS011;54139;42.616;23.748;2023-06-19T11:53:44;3.47;;;3.28;;
67227;SDS011;54139;42.616;23.748;2023-06-19T11:56:10;4.38;;;4.07;;
67227;SDS011;54139;42.616;23.748;2023-06-19T11:58:35;3.80;;;3.50;;
67227;SDS011;54139;42.616;23.748;2023-06-19T12:01:01;3.90;;;3.60;;
67227;SDS011;54139;42.616;23.748;2023-06-19T12:03:27;3.88;;;3.60;;
67227;SDS011;54139;42.616;23.748;2023-06-19T12:05:58;4.18;;;3.88;;
67227;SDS011;54139;42.616;23.748;2023-06-19T12:08:24;4.28;;;3.90;;
67227;SDS011;54139;42.616;23.748;2023-06-19T12:10:49;4.30;;;3.70;;
67227;SDS011;54139;42.616;23.748;2023-06-19T12:13:15;4.35;;;4.05;;
67227;SDS011;54139;42.616;23.748;2023-06-19T12:15:40;4.50;;;3.95;;
67227;SDS011;54139;42.616;23.748;2023-06-19T12:18:06;3.97;;;3.70;;
67227;SDS011;54139;42.616;23.748;2023-06-19T12:20:32;4.28;;;3.97;;
67227;SDS011;54139;42.616;23.748;2023-06-19T12:22:57;4.05;;;3.85;;
67227;SDS011;54139;42.616;23.748;2023-06-19T12:25:23;4.57;;;3.67;;
67227;SDS011;54139;42.616;23.748;2023-06-19T12:27:48;5.43;;;3.60;;
67227;SDS011;54139;42.616;23.748;2023-06-19T12:30:16;5.07;;;4.43;;
67227;SDS011;54139;42.616;23.748;2023-06-19T12:32:41;4.00;;;3.38;;
67227;SDS011;54139;42.616;23.748;2023-06-19T12:35:07;4.28;;;3.65;;
67227;SDS011;54139;42.616;23.748;2023-06-19T12:37:33;4.13;;;3.83;;
67227;SDS011;54139;42.616;23.748;2023-06-19T12:39:58;4.22;;;3.92;;
67227;SDS011;54139;42.616;23.748;2023-06-19T12:42:24;4.15;;;3.80;;
67227;SDS011;54139;42.616;23.748;2023-06-19T12:44:49;7.55;;;3.70;;
67227;SDS011;54139;42.616;23.748;2023-06-19T12:47:15;4.03;;;3.72;;
67227;SDS011;54139;42.616;23.748;2023-06-19T12:49:43;4.43;;;4.03;;
67227;SDS011;54139;42.616;23.748;2023-06-19T12:52:08;4.13;;;3.83;;
67227;SDS011;54139;42.616;23.748;2023-06-19T12:54:34;3.67;;;3.38;;
67227;SDS011;54139;42.616;23.748;2023-06-19T12:57:00;3.42;;;3.22;;
67227;SDS011;54139;42.616;23.748;2023-06-19T12:59:25;5.28;;;3.78;;
67227;SDS011;54139;42.616;23.748;2023-06-19T13:01:51;4.07;;;3.78;;
67227;SDS011;54139;42.616;23.748;2023-06-19T13:04:16;6.97;;;3.30;;
67227;SDS011;54139;42.616;23.748;2023-06-19T13:06:42;4.53;;;3.42;;
67227;SDS011;54139;42.616;23.748;2023-06-19T13:09:08;3.90;;;3.60;;
67227;SDS011;54139;42.616;23.748;2023-06-19T13:11:34;3.97;;;3.42;;
67227;SDS011;54139;42.616;23.748;2023-06-19T13:14:00;4.18;;;3.33;;
67227;SDS011;54139;42.616;23.748;2023-06-19T13:16:26;4.47;;;4.00;;
67227;SDS011;54139;42.616;23.748;2023-06-19T13:18:51;4.03;;;3.63;;
67227;SDS011;54139;42.616;23.748;2023-06-19T13:21:17;4.30;;;3.33;;
67227;SDS011;54139;42.616;23.748;2023-06-19T13:23:43;3.83;;;3.53;;
67227;SDS011;54139;42.616;23.748;2023-06-19T13:26:08;3.25;;;2.95;;
67227;SDS011;54139;42.616;23.748;2023-06-19T13:28:34;3.83;;;3.35;;
67227;SDS011;54139;42.616;23.748;2023-06-19T13:30:59;3.60;;;3.30;;
67227;SDS011;54139;42.616;23.748;2023-06-19T13:33:25;3.97;;;3.58;;
67227;SDS011;54139;42.616;23.748;2023-06-19T13:35:50;3.45;;;3.25;;
67227;SDS011;54139;42.616;23.748;2023-06-19T13:38:17;3.40;;;3.20;;
67227;SDS011;54139;42.616;23.748;2023-06-19T13:40:43;3.60;;;3.30;;
67227;SDS011;54139;42.616;23.748;2023-06-19T13:43:09;4.25;;;3.70;;
67227;SDS011;54139;42.616;23.748;2023-06-19T13:45:35;4.90;;;2.95;;
67227;SDS011;54139;42.616;23.748;2023-06-19T13:48:01;4.03;;;3.70;;
67227;SDS011;54139;42.616;23.748;2023-06-19T13:50:26;3.30;;;2.65;;
67227;SDS011;54139;42.616;23.748;2023-06-19T13:52:52;3.40;;;3.17;;
67227;SDS011;54139;42.616;23.748;2023-06-19T13:55:18;3.88;;;3.58;;
67227;SDS011;54139;42.616;23.748;2023-06-19T13:57:44;3.78;;;3.55;;
67227;SDS011;54139;42.616;23.748;2023-06-19T14:00:10;5.25;;;3.40;;
67227;SDS011;54139;42.616;23.748;2023-06-19T14:02:37;4.15;;;3.60;;
67227;SDS011;54139;42.616;23.748;2023-06-19T14:05:06;3.83;;;3.47;;
67227;SDS011;54139;42.616;23.748;2023-06-19T14:07:33;5.88;;;3.85;;
67227;SDS011;54139;42.616;23.748;2023-06-19T14:10:00;5.72;;;4.00;;
67227;SDS011;54139;42.616;23.748;2023-06-19T14:12:26;3.97;;;3.67;;
67227;SDS011;54139;42.616;23.748;2023-06-19T14:14:51;5.20;;;4.03;;
67227;SDS011;54139;42.616;23.748;2023-06-19T14:17:17;4.63;;;3.60;;
67227;SDS011;54139;42.616;23.748;2023-06-19T14:19:42;4.68;;;3.65;;
67227;SDS011;54139;42.616;23.748;2023-06-19T14:22:07;3.67;;;3.38;;
67227;SDS011;54139;42.616;23.748;2023-06-19T14:24:33;3.80;;;3.50;;
67227;SDS011;54139;42.616;23.748;2023-06-19T14:26:58;4.63;;;4.15;;
67227;SDS011;54139;42.616;23.748;2023-06-19T14:29:24;5.65;;;3.70;;
67227;SDS011;54139;42.616;23.748;2023-06-19T14:31:52;7.68;;;5.03;;
67227;SDS011;54139;42.616;23.748;2023-06-19T14:34:18;5.93;;;4.00;;
67227;SDS011;54139;42.616;23.748;2023-06-19T14:36:44;5.78;;;4.25;;
67227;SDS011;54139;42.616;23.748;2023-06-19T14:39:10;6.10;;;4.38;;